TIJ weather

General Abelardo L. Rodríguez International Airport
Tijuana, Baja California, Mexico

Public forecast

Using degrees Celsius for public forecast. Weather courtesy of forecast.io.

Current aviation weather report (METAR) for General Abelardo L. Rodríguez International Airport

Retrieved 2019/10/20 21:46 UTC (1 hour ago):

MMTJ 202146Z 29012KT 10SM SKC 24/12 A2987 RMK HZY

Aviation forecast (TAF) for General Abelardo L. Rodríguez International Airport

Retrieved 2019/10/20 18:16 UTC (5 hours ago):

TAF MMTJ 201611Z 2018/2124 35008KT P6SM SKC TX22/2020Z TN11/2113Z FM210400 00000KT 6SM HZ SKC FM211600 10008KT P6SM SKC